createdAt,value
2019-03-24T00:00:58.633Z,100556.97
2019-03-24T00:03:33.257Z,100557.81
2019-03-24T00:06:08.388Z,100560.97
2019-03-24T00:08:43.300Z,100566.48
2019-03-24T00:11:18.560Z,100571.83
2019-03-24T00:13:53.491Z,100565.32
2019-03-24T00:16:28.407Z,100568.67
2019-03-24T00:19:02.606Z,100571.57
2019-03-24T00:21:37.228Z,100579.78
2019-03-24T00:24:11.370Z,100580.79
2019-03-24T00:26:45.478Z,100584.81
2019-03-24T00:29:20.529Z,100590.31
2019-03-24T00:31:55.359Z,100586.20
2019-03-24T00:34:29.863Z,100583.61
2019-03-24T00:37:04.908Z,100582.25
2019-03-24T00:39:39.979Z,100586.27
2019-03-24T00:42:14.354Z,100585.00
2019-03-24T00:44:49.404Z,100587.73
2019-03-24T00:47:24.441Z,100582.03
2019-03-24T00:49:58.843Z,100581.86
2019-03-24T00:52:33.520Z,100581.43
2019-03-24T00:55:08.223Z,100578.63
2019-03-24T00:57:43.895Z,100582.61
2019-03-24T01:00:21.058Z,100583.09
2019-03-24T01:02:55.984Z,100581.48
2019-03-24T01:05:30.819Z,100584.47
2019-03-24T01:08:05.935Z,100586.41
2019-03-24T01:10:40.871Z,100581.86
2019-03-24T01:13:16.756Z,100585.91
2019-03-24T01:15:51.377Z,100578.28
2019-03-24T01:18:25.793Z,100577.31
2019-03-24T01:21:00.952Z,100575.91
2019-03-24T01:23:35.968Z,100571.17
2019-03-24T01:26:10.672Z,100568.33
2019-03-24T01:28:45.217Z,100569.00
2019-03-24T01:31:19.807Z,100565.74
2019-03-24T01:33:54.753Z,100573.38
2019-03-24T01:36:29.808Z,100582.77
2019-03-24T01:39:05.401Z,100586.31
2019-03-24T01:41:40.716Z,100596.50
2019-03-24T01:44:15.453Z,100598.73
2019-03-24T01:46:50.437Z,100595.00
2019-03-24T01:49:25.050Z,100598.14
2019-03-24T01:52:00.021Z,100599.87
2019-03-24T01:54:34.163Z,100599.43
2019-03-24T01:57:09.134Z,100600.78
2019-03-24T01:59:44.097Z,100606.70
2019-03-24T02:02:18.307Z,100606.98
2019-03-24T02:04:53.239Z,100604.70
2019-03-24T02:07:28.268Z,100613.73
2019-03-24T02:10:02.371Z,100614.69
2019-03-24T02:12:37.131Z,100615.81
2019-03-24T02:15:12.144Z,100612.19
2019-03-24T02:17:46.677Z,100617.59
2019-03-24T02:20:21.804Z,100624.45
2019-03-24T02:22:56.859Z,100617.88
2019-03-24T02:25:32.197Z,100621.22
2019-03-24T02:28:06.724Z,100628.02
2019-03-24T02:30:41.252Z,100624.23
2019-03-24T02:33:15.720Z,100620.16
2019-03-24T02:35:50.371Z,100618.05
2019-03-24T02:38:24.694Z,100623.31
2019-03-24T02:40:59.955Z,100624.66
2019-03-24T02:43:34.328Z,100629.16
2019-03-24T02:46:08.504Z,100630.26
2019-03-24T02:48:44.069Z,100627.37
2019-03-24T02:51:19.095Z,100632.82
2019-03-24T02:53:54.104Z,100637.05
2019-03-24T02:56:28.651Z,100631.70
2019-03-24T02:59:03.177Z,100626.46
2019-03-24T03:01:37.746Z,100633.09
2019-03-24T03:04:12.389Z,100632.81
2019-03-24T03:06:46.987Z,100625.06
2019-03-24T03:09:21.302Z,100628.70
2019-03-24T03:11:56.488Z,100633.61
2019-03-24T03:14:31.609Z,100634.75
2019-03-24T03:17:06.772Z,100635.64
2019-03-24T03:19:41.703Z,100636.69
2019-03-24T03:22:16.608Z,100637.56
2019-03-24T03:24:51.661Z,100636.39
2019-03-24T03:27:26.679Z,100639.51
2019-03-24T03:30:01.015Z,100640.44
2019-03-24T03:32:36.158Z,100639.84
2019-03-24T03:35:12.535Z,100641.88
2019-03-24T03:37:47.594Z,100641.38
2019-03-24T03:40:22.113Z,100639.74
2019-03-24T03:42:57.347Z,100636.86
2019-03-24T03:45:32.772Z,100640.25
2019-03-24T03:48:07.289Z,100638.90
2019-03-24T03:50:42.238Z,100638.43
2019-03-24T03:53:17.163Z,100641.11
2019-03-24T03:55:51.760Z,100633.77
2019-03-24T03:58:25.901Z,100633.98
2019-03-24T04:01:01.038Z,100635.17
2019-03-24T04:03:35.987Z,100635.11
2019-03-24T04:06:10.974Z,100636.27
2019-03-24T04:08:45.648Z,100631.59
2019-03-24T04:11:20.789Z,100623.86
2019-03-24T04:13:55.698Z,100620.06
2019-03-24T04:16:30.242Z,100621.13
2019-03-24T04:19:04.265Z,100616.83
2019-03-24T04:21:39.241Z,100616.31
2019-03-24T04:24:14.200Z,100615.53
2019-03-24T04:26:49.703Z,100618.71
2019-03-24T04:29:24.408Z,100624.55
2019-03-24T04:31:59.041Z,100622.75
2019-03-24T04:34:33.852Z,100620.96
2019-03-24T04:37:08.658Z,100617.34
2019-03-24T04:39:43.695Z,100616.94
2019-03-24T04:42:18.732Z,100618.05
2019-03-24T04:44:53.350Z,100613.81
2019-03-24T04:47:28.164Z,100616.70
2019-03-24T04:50:03.196Z,100618.74
2019-03-24T04:52:40.504Z,100619.27
2019-03-24T04:55:15.192Z,100623.81
2019-03-24T04:57:50.364Z,100619.20
2019-03-24T05:00:37.319Z,100625.89
2019-03-24T05:03:11.841Z,100621.36
2019-03-24T05:05:47.287Z,100621.22
2019-03-24T05:08:22.475Z,100629.23
2019-03-24T05:10:57.559Z,100623.58
2019-03-24T05:13:32.048Z,100625.23
2019-03-24T05:16:06.986Z,100623.02
2019-03-24T05:18:41.915Z,100628.01
2019-03-24T05:21:16.663Z,100625.69
2019-03-24T05:23:51.100Z,100624.52
2019-03-24T05:26:25.446Z,100627.05
2019-03-24T05:29:00.500Z,100629.69
2019-03-24T05:31:35.352Z,100631.67
2019-03-24T05:34:10.807Z,100628.95
2019-03-24T05:36:47.031Z,100629.48
2019-03-24T05:39:21.603Z,100627.36
2019-03-24T05:41:56.567Z,100621.02
2019-03-24T05:44:31.278Z,100615.91
2019-03-24T05:47:06.395Z,100612.03
2019-03-24T05:49:40.721Z,100607.98
2019-03-24T05:52:15.621Z,100601.98
2019-03-24T05:54:50.116Z,100603.48
2019-03-24T05:57:24.674Z,100602.55
2019-03-24T05:59:59.017Z,100604.23
2019-03-24T06:02:33.937Z,100602.13
2019-03-24T06:05:08.770Z,100604.05
2019-03-24T06:07:44.399Z,100610.22
2019-03-24T06:10:19.554Z,100605.38
2019-03-24T06:12:53.971Z,100608.79
2019-03-24T06:15:29.013Z,100611.45
2019-03-24T06:18:04.071Z,100614.02
2019-03-24T06:20:39.571Z,100614.14
2019-03-24T06:23:14.521Z,100615.97
2019-03-24T06:25:49.059Z,100614.91
2019-03-24T06:28:23.956Z,100617.17
2019-03-24T06:30:58.092Z,100622.65
2019-03-24T06:33:32.232Z,100624.76
2019-03-24T06:36:06.279Z,100630.50
2019-03-24T06:38:41.490Z,100632.20
2019-03-24T06:41:15.600Z,100633.45
2019-03-24T06:43:50.098Z,100632.31
2019-03-24T06:46:24.623Z,100632.20
2019-03-24T06:49:00.140Z,100623.86
2019-03-24T06:51:36.152Z,100623.47
2019-03-24T06:54:11.494Z,100626.55
2019-03-24T06:56:46.711Z,100622.60
2019-03-24T06:59:21.442Z,100622.66
2019-03-24T07:01:56.470Z,100630.73
2019-03-24T07:04:30.897Z,100624.92
2019-03-24T07:07:06.588Z,100631.50
2019-03-24T07:09:41.252Z,100628.03
2019-03-24T07:12:16.661Z,100626.55
2019-03-24T07:14:50.701Z,100622.60
2019-03-24T07:17:24.643Z,100624.12
2019-03-24T07:19:59.010Z,100623.23
2019-03-24T07:22:31.726Z,100622.98
2019-03-24T07:25:06.137Z,100622.20
2019-03-24T07:27:39.380Z,100617.70
2019-03-24T07:30:14.164Z,100617.05
2019-03-24T07:32:47.779Z,100619.01
2019-03-24T07:35:23.739Z,100618.02
2019-03-24T07:37:56.492Z,100616.41
2019-03-24T07:40:30.851Z,100610.13
2019-03-24T07:43:05.229Z,100600.34
2019-03-24T07:45:40.606Z,100601.00
2019-03-24T07:48:19.304Z,100595.78
2019-03-24T07:50:50.065Z,100597.11
2019-03-24T07:53:25.628Z,100583.17
2019-03-24T07:55:59.345Z,100577.65
2019-03-24T07:58:33.871Z,100573.20
2019-03-24T08:01:08.433Z,100575.27
2019-03-24T08:03:43.285Z,100573.48
2019-03-24T08:06:18.161Z,100566.94
2019-03-24T08:08:52.587Z,100569.80
2019-03-24T08:11:27.014Z,100562.73
2019-03-24T08:14:02.188Z,100557.70
2019-03-24T08:16:36.589Z,100554.67
2019-03-24T08:19:11.251Z,100552.08
2019-03-24T08:21:45.803Z,100556.34
2019-03-24T08:24:20.530Z,100553.20
2019-03-24T08:26:54.986Z,100544.61
2019-03-24T08:29:29.981Z,100539.97
2019-03-24T08:32:04.111Z,100545.89
2019-03-24T08:34:38.270Z,100542.75
2019-03-24T08:37:13.259Z,100547.20
2019-03-24T08:39:48.597Z,100540.28
2019-03-24T08:42:24.982Z,100539.88
2019-03-24T08:45:00.489Z,100536.33
2019-03-24T08:47:35.972Z,100525.92
2019-03-24T08:50:09.621Z,100528.91
2019-03-24T08:52:43.867Z,100522.70
2019-03-24T08:55:18.891Z,100522.70
2019-03-24T08:57:53.964Z,100518.78
2019-03-24T09:00:31.652Z,100513.28
2019-03-24T09:03:10.106Z,100509.30
2019-03-24T09:05:45.073Z,100508.58
2019-03-24T09:08:20.859Z,100502.28
2019-03-24T09:10:55.504Z,100499.64
2019-03-24T09:13:29.609Z,100502.63
2019-03-24T09:16:04.584Z,100494.18
2019-03-24T09:18:39.355Z,100496.27
2019-03-24T09:21:14.341Z,100494.28
2019-03-24T09:23:49.767Z,100497.55
2019-03-24T09:26:24.167Z,100490.95
2019-03-24T09:28:59.366Z,100483.25
2019-03-24T09:31:34.534Z,100473.03
2019-03-24T09:34:09.196Z,100480.98
2019-03-24T09:36:43.676Z,100477.89
2019-03-24T09:39:19.140Z,100477.84
2019-03-24T09:41:53.963Z,100480.28
2019-03-24T09:44:28.281Z,100475.52
2019-03-24T09:47:03.120Z,100469.39
2019-03-24T09:49:36.609Z,100469.94
2019-03-24T09:52:09.485Z,100475.92
2019-03-24T09:54:43.712Z,100474.33
2019-03-24T09:57:19.442Z,100468.57
2019-03-24T09:59:52.577Z,100464.33
2019-03-24T10:02:26.058Z,100457.82
2019-03-24T10:04:59.874Z,100455.89
2019-03-24T10:07:37.869Z,100451.03
2019-03-24T10:10:13.891Z,100448.95
2019-03-24T10:12:49.106Z,100443.02
2019-03-24T10:15:22.775Z,100433.31
2019-03-24T10:17:55.709Z,100429.87
2019-03-24T10:20:30.048Z,100427.20
2019-03-24T10:23:04.330Z,100420.19
2019-03-24T10:25:39.183Z,100416.76
2019-03-24T10:28:13.752Z,100412.84
2019-03-24T10:30:47.731Z,100409.98
2019-03-24T10:33:22.157Z,100411.72
2019-03-24T10:35:57.419Z,100406.61
2019-03-24T10:38:31.736Z,100400.25
2019-03-24T10:41:04.762Z,100398.40
2019-03-24T10:43:38.056Z,100396.91
2019-03-24T10:46:11.684Z,100390.11
2019-03-24T10:48:45.934Z,100382.13
2019-03-24T10:51:20.699Z,100376.97
2019-03-24T10:53:54.209Z,100368.67
2019-03-24T10:56:27.757Z,100359.44
2019-03-24T10:59:01.348Z,100358.34
2019-03-24T11:01:37.133Z,100351.36
2019-03-24T11:04:11.558Z,100353.87
2019-03-24T11:06:45.216Z,100348.91
2019-03-24T11:09:19.583Z,100338.23
2019-03-24T11:11:54.154Z,100334.42
2019-03-24T11:14:28.840Z,100331.02
2019-03-24T11:17:03.353Z,100329.44
2019-03-24T11:19:38.406Z,100319.75
2019-03-24T11:22:12.154Z,100325.58
2019-03-24T11:24:47.300Z,100321.23
2019-03-24T11:27:21.689Z,100322.37
2019-03-24T11:30:00.315Z,100327.41
2019-03-24T11:32:34.767Z,100317.91
2019-03-24T11:35:09.325Z,100311.28
2019-03-24T11:37:44.237Z,100309.01
2019-03-24T11:40:18.748Z,100307.10
2019-03-24T11:42:53.135Z,100299.67
2019-03-24T11:45:28.045Z,100288.20
2019-03-24T11:48:02.438Z,100285.31
2019-03-24T11:50:36.948Z,100272.84
2019-03-24T11:53:11.390Z,100269.00
2019-03-24T11:55:45.752Z,100251.62
2019-03-24T11:58:20.519Z,100245.38
2019-03-24T12:00:56.787Z,100240.60
2019-03-24T12:03:31.208Z,100238.73
2019-03-24T12:06:14.423Z,100233.08
2019-03-24T12:08:42.117Z,100222.98
2019-03-24T12:11:17.428Z,100219.20
2019-03-24T12:13:52.186Z,100212.80
2019-03-24T12:16:26.577Z,100200.63
2019-03-24T12:19:01.364Z,100191.02
2019-03-24T12:21:36.582Z,100180.93
2019-03-24T12:24:11.186Z,100172.74
2019-03-24T12:26:45.906Z,100168.90
2019-03-24T12:29:20.714Z,100167.70
2019-03-24T12:31:56.239Z,100155.77
2019-03-24T12:34:31.151Z,100151.48
2019-03-24T12:37:06.796Z,100138.75
2019-03-24T12:39:41.960Z,100134.03
2019-03-24T12:42:16.810Z,100128.81
2019-03-24T12:44:51.375Z,100123.26
2019-03-24T12:47:25.946Z,100106.58
2019-03-24T12:50:08.911Z,100104.59
2019-03-24T12:52:37.105Z,100096.12
2019-03-24T12:55:12.293Z,100094.02
2019-03-24T12:57:46.534Z,100085.28
2019-03-24T13:00:40.973Z,100083.38
2019-03-24T13:03:15.231Z,100076.80
2019-03-24T13:05:49.661Z,100069.75
2019-03-24T13:08:22.944Z,100061.59
2019-03-24T13:10:57.672Z,100057.16
2019-03-24T13:13:30.863Z,100058.61
2019-03-24T13:16:06.008Z,100057.30
2019-03-24T13:18:40.738Z,100048.95
2019-03-24T13:21:14.737Z,100052.25
2019-03-24T13:23:48.853Z,100051.36
2019-03-24T13:26:22.263Z,100043.34
2019-03-24T13:28:56.105Z,100046.43
2019-03-24T13:31:29.044Z,100038.41
2019-03-24T13:34:03.386Z,100039.40
2019-03-24T13:36:39.023Z,100029.56
2019-03-24T13:39:12.855Z,100021.75
2019-03-24T13:41:48.378Z,100017.81
2019-03-24T13:44:22.210Z,100021.48
2019-03-24T13:46:56.405Z,100014.24
2019-03-24T13:49:30.566Z,100011.52
2019-03-24T13:52:05.463Z,100007.45
2019-03-24T13:54:39.767Z,100002.34
2019-03-24T13:57:13.180Z,99999.33
2019-03-24T13:59:48.064Z,99985.41
2019-03-24T14:02:22.858Z,99977.84
2019-03-24T14:04:57.813Z,99972.98
2019-03-24T14:07:32.742Z,99966.43
2019-03-24T14:10:07.473Z,99956.70
2019-03-24T14:12:42.822Z,99951.05
2019-03-24T14:15:17.468Z,99951.19
2019-03-24T14:17:51.421Z,99949.44
2019-03-24T14:20:26.462Z,99946.56
2019-03-24T14:23:01.122Z,99945.47
2019-03-24T14:25:36.107Z,99938.20
2019-03-24T14:28:11.051Z,99937.69
2019-03-24T14:30:53.102Z,99934.95
2019-03-24T14:33:27.657Z,99928.73
2019-03-24T14:36:02.348Z,99922.48
2019-03-24T14:38:37.507Z,99916.68
2019-03-24T14:41:12.277Z,99912.41
2019-03-24T14:43:47.181Z,99915.11
2019-03-24T14:46:21.856Z,99903.51
2019-03-24T14:48:56.973Z,99908.09
2019-03-24T14:51:31.113Z,99908.48
2019-03-24T14:54:06.022Z,99904.05
2019-03-24T14:56:41.383Z,99898.16
2019-03-24T14:59:15.371Z,99894.43
2019-03-24T15:01:51.659Z,99884.19
2019-03-24T15:04:26.171Z,99878.89
2019-03-24T15:07:01.223Z,99872.08
2019-03-24T15:09:35.840Z,99869.34
2019-03-24T15:12:10.776Z,99864.66
2019-03-24T15:14:45.210Z,99862.83
2019-03-24T15:17:19.800Z,99860.91
2019-03-24T15:19:54.690Z,99863.37
2019-03-24T15:22:30.587Z,99865.00
2019-03-24T15:25:04.974Z,99865.08
2019-03-24T15:27:39.147Z,99863.73
2019-03-24T15:30:13.794Z,99853.84
2019-03-24T15:32:48.459Z,99845.05
2019-03-24T15:35:23.241Z,99848.69
2019-03-24T15:38:08.056Z,99848.13
2019-03-24T15:40:34.413Z,99849.55
2019-03-24T15:43:09.635Z,99855.80
2019-03-24T15:45:44.232Z,99862.98
2019-03-24T15:48:19.127Z,99865.03
2019-03-24T15:50:53.669Z,99868.69
2019-03-24T15:53:28.811Z,99871.37
2019-03-24T15:56:03.613Z,99867.72
2019-03-24T15:58:38.439Z,99864.05
2019-03-24T16:01:13.271Z,99861.45
2019-03-24T16:03:48.303Z,99861.38
2019-03-24T16:06:23.240Z,99860.27
2019-03-24T16:08:57.812Z,99861.15
2019-03-24T16:11:33.031Z,99859.60
2019-03-24T16:14:07.513Z,99864.41
2019-03-24T16:16:42.644Z,99857.08
2019-03-24T16:19:17.596Z,99856.75
2019-03-24T16:21:52.271Z,99860.09
2019-03-24T16:24:26.367Z,99856.75
2019-03-24T16:27:01.580Z,99858.45
2019-03-24T16:29:36.609Z,99855.87
2019-03-24T16:32:10.895Z,99852.15
2019-03-24T16:34:45.666Z,99849.16
2019-03-24T16:37:20.104Z,99850.29
2019-03-24T16:39:54.488Z,99847.98
2019-03-24T16:42:32.020Z,99847.38
2019-03-24T16:45:08.335Z,99844.89
2019-03-24T16:47:41.476Z,99848.11
2019-03-24T16:50:16.662Z,99846.92
2019-03-24T16:52:49.780Z,99839.09
2019-03-24T16:55:22.978Z,99842.44
2019-03-24T16:57:57.535Z,99839.48
2019-03-24T17:00:32.688Z,99838.96
2019-03-24T17:03:07.569Z,99839.88
2019-03-24T17:05:40.743Z,99846.53
2019-03-24T17:08:15.280Z,99844.44
2019-03-24T17:10:48.789Z,99841.84
2019-03-24T17:13:22.390Z,99842.47
2019-03-24T17:15:55.179Z,99848.16
2019-03-24T17:18:27.900Z,99847.25
2019-03-24T17:21:01.247Z,99848.05
2019-03-24T17:23:34.543Z,99848.97
2019-03-24T17:26:07.937Z,99847.13
2019-03-24T17:28:40.694Z,99844.81
2019-03-24T17:31:15.630Z,99837.80
2019-03-24T17:33:50.713Z,99838.56
2019-03-24T17:36:25.596Z,99841.27
2019-03-24T17:39:00.257Z,99839.84
2019-03-24T17:41:35.382Z,99837.80
2019-03-24T17:44:08.911Z,99829.37
2019-03-24T17:46:43.259Z,99831.55
2019-03-24T17:49:16.913Z,99832.02
2019-03-24T17:52:00.404Z,99833.83
2019-03-24T17:54:26.742Z,99824.91
2019-03-24T17:56:59.516Z,99829.15
2019-03-24T17:59:33.521Z,99825.45
2019-03-24T18:02:14.242Z,99825.91
2019-03-24T18:04:42.280Z,99822.47
2019-03-24T18:07:18.188Z,99826.62
2019-03-24T18:09:52.817Z,99829.33
2019-03-24T18:12:26.569Z,99821.48
2019-03-24T18:15:02.691Z,99820.18
2019-03-24T18:17:37.340Z,99816.17
2019-03-24T18:20:12.135Z,99819.96
2019-03-24T18:22:46.737Z,99823.08
2019-03-24T18:25:21.746Z,99818.73
2019-03-24T18:27:56.393Z,99822.33
2019-03-24T18:30:32.477Z,99818.30
2019-03-24T18:33:07.286Z,99821.56
2019-03-24T18:35:42.335Z,99814.54
2019-03-24T18:38:17.133Z,99807.88
2019-03-24T18:40:53.000Z,99809.24
2019-03-24T18:43:27.093Z,99803.36
2019-03-24T18:46:02.149Z,99796.07
2019-03-24T18:48:36.771Z,99802.16
2019-03-24T18:51:11.403Z,99801.70
2019-03-24T18:53:46.006Z,99798.55
2019-03-24T18:56:19.562Z,99799.91
2019-03-24T18:58:54.584Z,99798.24
2019-03-24T19:01:28.394Z,99796.05
2019-03-24T19:04:02.108Z,99800.98
2019-03-24T19:06:37.289Z,99803.13
2019-03-24T19:09:12.469Z,99802.63
2019-03-24T19:11:45.646Z,99805.06
2019-03-24T19:14:18.514Z,99800.39
2019-03-24T19:16:51.931Z,99797.47
2019-03-24T19:19:29.363Z,99799.19
2019-03-24T19:22:03.394Z,99798.15
2019-03-24T19:24:39.495Z,99793.64
2019-03-24T19:27:13.470Z,99794.24
2019-03-24T19:29:46.726Z,99796.09
2019-03-24T19:32:19.389Z,99803.19
2019-03-24T19:34:53.762Z,99800.17
2019-03-24T19:37:28.150Z,99797.83
2019-03-24T19:40:02.831Z,99795.69
2019-03-24T19:42:36.251Z,99787.55
2019-03-24T19:45:10.220Z,99783.87
2019-03-24T19:47:43.500Z,99778.20
2019-03-24T19:50:20.265Z,99780.81
2019-03-24T19:52:54.016Z,99780.44
2019-03-24T19:55:27.172Z,99780.37
2019-03-24T19:58:00.395Z,99778.48
2019-03-24T20:00:33.549Z,99772.77
2019-03-24T20:03:09.173Z,99775.41
2019-03-24T20:05:43.249Z,99777.48
2019-03-24T20:08:16.609Z,99768.89
2019-03-24T20:11:17.241Z,99772.08
2019-03-24T20:13:50.985Z,99774.02
2019-03-24T20:16:25.427Z,99771.34
2019-03-24T20:19:00.901Z,99764.27
2019-03-24T20:21:34.019Z,99763.36
2019-03-24T20:24:06.830Z,99764.12
2019-03-24T20:26:41.668Z,99762.17
2019-03-24T20:29:15.223Z,99758.23
2019-03-24T20:31:50.562Z,99759.08
2019-03-24T20:34:23.669Z,99758.57
2019-03-24T20:36:58.037Z,99752.25
2019-03-24T20:39:31.341Z,99752.94
2019-03-24T20:42:05.799Z,99751.00
2019-03-24T20:44:39.425Z,99747.93
2019-03-24T20:47:13.865Z,99744.09
2019-03-24T20:49:48.030Z,99742.02
2019-03-24T20:52:21.219Z,99739.42
2019-03-24T20:54:55.183Z,99739.54
2019-03-24T20:57:29.115Z,99733.19
2019-03-24T21:00:06.399Z,99733.13
2019-03-24T21:02:40.471Z,99731.03
2019-03-24T21:05:13.724Z,99722.59
2019-03-24T21:07:46.874Z,99718.20
2019-03-24T21:10:20.627Z,99717.11
2019-03-24T21:12:54.767Z,99708.98
2019-03-24T21:15:28.582Z,99697.52
2019-03-24T21:18:03.485Z,99697.20
2019-03-24T21:20:38.671Z,99698.64
2019-03-24T21:23:11.475Z,99690.52
2019-03-24T21:25:44.647Z,99689.36
2019-03-24T21:28:17.876Z,99692.73
2019-03-24T21:30:51.303Z,99686.24
2019-03-24T21:33:25.854Z,99683.32
2019-03-24T21:35:58.983Z,99682.69
2019-03-24T21:38:33.444Z,99682.05
2019-03-24T21:41:07.698Z,99681.87
2019-03-24T21:43:40.522Z,99673.09
2019-03-24T21:46:13.275Z,99673.18
2019-03-24T21:48:48.161Z,99674.34
2019-03-24T21:51:21.356Z,99676.52
2019-03-24T21:53:54.564Z,99672.42
2019-03-24T21:56:27.771Z,99675.12
2019-03-24T21:59:01.286Z,99674.91
2019-03-24T22:01:34.992Z,99674.42
2019-03-24T22:04:07.815Z,99669.44
2019-03-24T22:06:41.191Z,99668.62
2019-03-24T22:09:15.562Z,99664.47
2019-03-24T22:11:51.045Z,99659.39
2019-03-24T22:14:25.576Z,99655.80
2019-03-24T22:16:59.417Z,99656.64
2019-03-24T22:19:33.557Z,99653.73
2019-03-24T22:22:07.013Z,99655.08
2019-03-24T22:24:40.740Z,99650.81
2019-03-24T22:27:14.572Z,99656.53
2019-03-24T22:29:48.933Z,99659.20
2019-03-24T22:32:22.712Z,99651.92
2019-03-24T22:34:56.496Z,99655.22
2019-03-24T22:37:29.696Z,99654.47
2019-03-24T22:40:02.885Z,99655.46
2019-03-24T22:42:36.553Z,99653.98
2019-03-24T22:45:10.115Z,99651.59
2019-03-24T22:47:43.333Z,99642.73
2019-03-24T22:50:16.924Z,99642.73
2019-03-24T22:52:51.725Z,99642.41
2019-03-24T22:55:24.602Z,99643.60
2019-03-24T22:57:58.315Z,99633.63
2019-03-24T23:01:05.989Z,99625.32
2019-03-24T23:03:41.278Z,99623.70
2019-03-24T23:06:14.995Z,99624.38
2019-03-24T23:08:49.325Z,99619.13
2019-03-24T23:11:23.728Z,99618.39
2019-03-24T23:13:56.595Z,99611.25
2019-03-24T23:16:31.480Z,99607.66
2019-03-24T23:19:05.418Z,99600.45
2019-03-24T23:21:38.802Z,99602.45
2019-03-24T23:24:15.601Z,99597.45
2019-03-24T23:26:48.759Z,99597.89
2019-03-24T23:29:21.591Z,99587.34
2019-03-24T23:31:54.746Z,99587.20
2019-03-24T23:34:28.124Z,99588.76
2019-03-24T23:37:07.113Z,99581.34
2019-03-24T23:39:40.604Z,99586.53
2019-03-24T23:42:13.361Z,99584.11
2019-03-24T23:44:47.548Z,99583.89
2019-03-24T23:47:20.747Z,99584.59
2019-03-24T23:49:54.031Z,99575.02
2019-03-24T23:52:29.088Z,99573.50
2019-03-24T23:55:02.970Z,99575.92
2019-03-24T23:57:36.704Z,99572.89
